PORT of AGIOS KONSTANTINOS

Riik: Greece Riik: Greece (GR)
Latitude / Longitude: 38.758095° / 22.866425° Näita kaardil Näita kaardil
Kohalik aeg:  UTC +3
UN/LOCODE: GRAKO

Recent Arrivals and Departures


Vessel's Name
Saabumine (UTC)
Saabumine (LT)
Departure (UTC)
Departure (LT)
Vessel Type: High Speed Craft  FLYING DOLPHIN ERATO 2014-09-21 15:05:00 2014-09-21 18:05:00 2014-09-21 15:52:00 2014-09-21 18:52:00
Vessel Type: High Speed Craft  FLYING DOLPHIN ERATO 2014-09-19 16:51:00 2014-09-19 19:51:00 2014-09-19 17:28:00 2014-09-19 20:28:00
Vessel Type: High Speed Craft  FLYING DOLPHIN ERATO 2014-09-12 16:05:00 2014-09-12 19:05:00 2014-09-12 16:42:00 2014-09-12 19:42:00
Vessel Type: Passenger Vessels  OSIOS DAVID 2014-09-12 16:05:00 2014-09-12 19:05:00 2014-09-12 16:38:00 2014-09-12 19:38:00
Vessel Type: Passenger Vessels  OSIOS DAVID 2014-09-12 14:08:00 2014-09-12 17:08:00 2014-09-12 14:38:00 2014-09-12 17:38:00
Vessel Type: Passenger Vessels  OSIOS DAVID 2014-09-12 08:08:00 2014-09-12 11:08:00 2014-09-12 08:37:00 2014-09-12 11:37:00
Vessel Type: Passenger Vessels  OSIOS DAVID 2014-09-12 06:06:00 2014-09-12 09:06:00 2014-09-12 06:37:00 2014-09-12 09:37:00
Vessel Type: Passenger Vessels  OSIOS DAVID 2014-09-11 16:06:00 2014-09-11 19:06:00 2014-09-11 16:37:00 2014-09-11 19:37:00
Vessel Type: Passenger Vessels  OSIOS DAVID 2014-09-11 12:07:00 2014-09-11 15:07:00 2014-09-11 12:39:00 2014-09-11 15:39:00
Vessel Type: Passenger Vessels  OSIOS DAVID 2014-09-11 02:17:00 2014-09-11 05:17:00 2014-09-11 02:32:00 2014-09-11 05:32:00

Oodatavad saabumised


Vessel's Name
Scheduled Arrival (UTC)
Ajastatud saabumisaeg (KA)
Loodetav saabumisaeg (UTC)
Loodetav saabumisaeg (KA)
Salvestusi ei leitud

Ilmainfo tuulest


    
Aeg (UTC)
Kiirus
Suund
Temperatuur
2014-09-22 15:00:00 10 knots 259° 27°C
2014-09-22 18:00:00 14 knots 256° 26°C
2014-09-22 21:00:00 14 knots 256° 25°C
2014-09-23 00:00:00 13 knots 251° 24°C
2014-09-23 03:00:00 15 knots 244° 23°C
2014-09-23 06:00:00 14 knots 243° 24°C
2014-09-23 09:00:00 18 knots 263° 26°C
2014-09-23 12:00:00 11 knots 311° 26°C
2014-09-23 15:00:00 16 knots 52° 21°C
2014-09-23 18:00:00 12 knots 43° 20°C
2014-09-23 21:00:00 15 knots 25° 20°C
2014-09-24 00:00:00 17 knots 17° 19°C
2014-09-24 03:00:00 17 knots 18°C
2014-09-24 06:00:00 16 knots 17°C
2014-09-24 09:00:00 11 knots 23° 17°C
2014-09-24 12:00:00 6 knots 64° 18°C
2014-09-24 15:00:00 4 knots 86° 19°C